Time;durP1;ratioP1;P1;durP2;ratioP2;P2;SDS_P1;SDS_P2;PMS_P1;PMS_P2;Temp;Humidity;BMP_temperature;BMP_pressure;BME280_temperature;BME280_humidity;BME280_pressure;Samples;Min_cycle;Max_cycle;Signal;HPM_P1;HPM_P2
2023/06/24 00:01:13;;;;;;;9.90;9.02;;;;;;;18.43;100.00;102279.66;5007435;28;20030;-61
2023/06/24 00:03:38;;;;;;;9.88;9.02;;;;;;;18.39;100.00;102283.03;5007505;28;20022;-61
2023/06/24 00:06:04;;;;;;;9.90;9.10;;;;;;;18.38;100.00;102278.66;5007489;28;20378;-60
2023/06/24 00:08:34;;;;;;;11.40;10.40;;;;;;;18.31;100.00;102285.50;5007653;28;20022;-61
2023/06/24 00:10:59;;;;;;;11.98;10.77;;;;;;;18.24;100.00;102278.34;5006787;28;20609;-61
2023/06/24 00:13:25;;;;;;;11.70;10.60;;;;;;;18.17;100.00;102274.69;5007113;28;20084;-61
2023/06/24 00:15:50;;;;;;;12.05;10.50;;;;;;;18.10;100.00;102278.88;5007320;28;20574;-61
2023/06/24 00:18:15;;;;;;;12.75;11.45;;;;;;;18.07;100.00;102285.78;5007544;28;20030;-61
2023/06/24 00:20:43;;;;;;;13.40;12.20;;;;;;;18.03;100.00;102284.81;5007366;28;20022;-61
2023/06/24 00:23:08;;;;;;;12.55;11.48;;;;;;;17.99;100.00;102289.09;5007191;28;20292;-61
2023/06/24 00:25:34;;;;;;;12.93;11.68;;;;;;;17.98;100.00;102287.34;5007605;28;20530;-61
2023/06/24 00:27:59;;;;;;;12.75;11.45;;;;;;;17.96;100.00;102291.66;5008001;28;20028;-61
2023/06/24 00:30:26;;;;;;;12.90;11.80;;;;;;;17.94;100.00;102289.84;5007236;28;20053;-60
2023/06/24 00:32:51;;;;;;;13.18;12.07;;;;;;;17.90;100.00;102290.63;5008598;28;20094;-60
2023/06/24 00:35:17;;;;;;;12.38;11.30;;;;;;;17.86;100.00;102293.16;5010699;28;20105;-61
2023/06/24 00:37:47;;;;;;;12.70;11.50;;;;;;;17.84;100.00;102291.38;5011312;28;20022;-61
2023/06/24 00:40:15;;;;;;;12.90;11.63;;;;;;;17.83;100.00;102294.81;5011318;28;20048;-61
2023/06/24 00:42:42;;;;;;;13.05;11.73;;;;;;;17.83;100.00;102300.97;5010942;28;20029;-61
2023/06/24 00:45:10;;;;;;;13.35;12.20;;;;;;;17.83;100.00;102300.97;5011143;28;20073;-60
2023/06/24 00:47:35;;;;;;;12.63;11.35;;;;;;;17.84;100.00;102300.13;5011434;28;20022;-61
2023/06/24 00:50:01;;;;;;;12.60;11.50;;;;;;;17.79;100.00;102298.22;5004627;28;20535;-61
2023/06/24 00:52:26;;;;;;;12.60;11.40;;;;;;;17.75;100.00;102294.66;5010614;28;20477;-61
2023/06/24 00:54:51;;;;;;;13.30;12.10;;;;;;;17.71;100.00;102309.41;5011147;28;20104;-61
2023/06/24 00:57:24;;;;;;;14.32;13.13;;;;;;;17.68;100.00;102306.72;5010882;28;20093;-61
2023/06/24 00:59:53;;;;;;;14.43;12.05;;;;;;;17.66;100.00;102300.53;5010727;28;20061;-61
2023/06/24 01:02:20;;;;;;;12.70;11.50;;;;;;;17.63;100.00;102297.81;5010879;28;20056;-61
2023/06/24 01:04:46;;;;;;;12.60;11.50;;;;;;;17.60;100.00;102295.13;5010236;28;20071;-61
2023/06/24 01:07:12;;;;;;;13.30;12.10;;;;;;;17.56;100.00;102293.31;5010786;28;20037;-61
2023/06/24 01:09:37;;;;;;;13.68;12.30;;;;;;;17.53;100.00;102291.47;5011182;28;20026;-61
2023/06/24 01:12:03;;;;;;;13.07;11.82;;;;;;;17.50;100.00;102284.41;5011046;28;20586;-61
2023/06/24 01:14:28;;;;;;;13.30;12.02;;;;;;;17.48;100.00;102290.47;5010607;28;20033;-61
2023/06/24 01:17:03;;;;;;;13.63;12.38;;;;;;;17.41;100.00;102284.19;5010087;28;20068;-61
2023/06/24 01:19:38;;;;;;;13.20;12.10;;;;;;;17.38;100.00;102279.75;5010357;28;20116;-61
2023/06/24 01:22:36;;;;;;;13.75;12.55;;;;;;;17.36;100.00;102270.09;4992341;28;20335;-61
2023/06/24 01:25:56;;;;;;;14.30;13.02;;;;;;;17.33;100.00;102275.22;5010055;28;20026;-61
2023/06/24 01:28:24;;;;;;;14.00;12.73;;;;;;;17.28;100.00;102276.00;4948566;28;20038;-61
2023/06/24 01:31:18;;;;;;;13.20;12.02;;;;;;;17.26;100.00;102280.31;4949363;29;20395;-61
2023/06/24 01:34:01;;;;;;;13.15;11.95;;;;;;;17.25;100.00;102265.41;4989183;28;20038;-61
2023/06/24 01:36:29;;;;;;;12.82;11.73;;;;;;;17.25;100.00;102275.91;5009447;28;20022;-61
2023/06/24 01:39:03;;;;;;;13.00;11.80;;;;;;;17.20;100.00;102264.41;5010228;28;20266;-61
2023/06/24 01:41:34;;;;;;;13.93;12.63;;;;;;;17.18;100.00;102266.09;5009640;28;20087;-61
2023/06/24 01:44:00;;;;;;;;;;;;;;;17.18;100.00;102266.09;5010350;28;20033;-61
2023/06/24 01:46:29;;;;;;;13.15;11.93;;;;;;;17.18;100.00;102265.22;5010396;28;19917;-60
2023/06/24 01:48:57;;;;;;;13.10;12.00;;;;;;;17.14;100.00;102272.97;5010539;28;20022;-60
2023/06/24 01:51:25;;;;;;;13.77;12.05;;;;;;;17.10;100.00;102272.84;5010182;28;20052;-61
2023/06/24 01:54:00;;;;;;;13.30;12.00;;;;;;;17.04;100.00;102271.81;5010374;28;20041;-60
2023/06/24 01:56:27;;;;;;;13.07;11.98;;;;;;;17.00;100.00;102269.94;5009923;28;20025;-61
2023/06/24 01:58:55;;;;;;;12.93;11.85;;;;;;;16.97;100.00;102268.97;5010203;28;20116;-61
2023/06/24 02:01:23;;;;;;;13.20;12.00;;;;;;;16.92;100.00;102263.63;5010233;28;20028;-61
2023/06/24 02:03:49;;;;;;;13.48;11.90;;;;;;;16.89;100.00;102264.41;5009760;28;20030;-61
2023/06/24 02:06:16;;;;;;;13.35;12.05;;;;;;;16.87;100.00;102266.13;5010547;28;20058;-61
2023/06/24 02:08:43;;;;;;;12.88;11.77;;;;;;;16.84;100.00;102271.25;5010376;28;20026;-61
2023/06/24 02:11:09;;;;;;;13.43;12.02;;;;;;;16.80;100.00;102265.03;5010124;28;20029;-61
2023/06/24 02:13:36;;;;;;;12.07;10.75;;;;;;;16.77;100.00;102264.97;5009983;28;20056;-61
2023/06/24 02:16:03;;;;;;;13.35;12.05;;;;;;;16.75;100.00;102266.63;5009966;28;20470;-61
2023/06/24 02:18:29;;;;;;;12.52;11.23;;;;;;;16.73;100.00;102267.44;5009444;28;20061;-61
2023/06/24 02:20:56;;;;;;;13.27;12.02;;;;;;;16.67;100.00;102273.38;5010278;28;20033;-61
2023/06/24 02:23:22;;;;;;;13.18;11.98;;;;;;;16.62;100.00;102270.63;5009185;28;20422;-61
2023/06/24 02:25:49;;;;;;;12.93;11.75;;;;;;;16.61;100.00;102267.97;5009763;28;20471;-60
2023/06/24 02:28:15;;;;;;;13.55;12.25;;;;;;;16.57;100.00;102264.38;5010297;28;20624;-60
2023/06/24 02:30:42;;;;;;;13.20;11.90;;;;;;;16.53;100.00;102266.00;5009925;28;20030;-61
2023/06/24 02:33:09;;;;;;;13.07;11.73;;;;;;;16.49;100.00;102266.78;5009283;28;20117;-61
2023/06/24 02:35:34;;;;;;;13.70;12.40;;;;;;;16.46;100.00;102269.28;5009533;28;20022;-61
2023/06/24 02:37:59;;;;;;;12.77;11.57;;;;;;;16.43;100.00;102264.84;5009724;28;20021;-61
2023/06/24 02:40:25;;;;;;;12.43;11.38;;;;;;;16.39;100.00;102262.97;5009611;28;20091;-61
2023/06/24 02:42:50;;;;;;;12.90;11.63;;;;;;;16.38;100.00;102260.31;5009266;28;20034;-60
2023/06/24 02:45:16;;;;;;;12.95;11.65;;;;;;;16.37;100.00;102263.78;5009874;28;20034;-60
2023/06/24 02:47:46;;;;;;;12.23;11.07;;;;;;;16.33;100.00;102263.66;5009736;28;20359;-61
2023/06/24 02:50:12;;;;;;;11.95;10.75;;;;;;;16.31;100.00;102260.16;5009344;28;20069;-61
2023/06/24 02:52:38;;;;;;;12.90;11.70;;;;;;;16.29;100.00;102267.06;5009058;28;20429;-61
2023/06/24 02:55:05;;;;;;;12.27;11.10;;;;;;;16.25;100.00;102265.16;5008674;28;20465;-61
2023/06/24 02:57:32;;;;;;;11.32;10.30;;;;;;;16.24;100.00;102262.50;5009494;28;20032;-61
2023/06/24 02:59:57;;;;;;;11.90;10.70;;;;;;;16.24;100.00;102273.88;5008928;28;20053;-61
2023/06/24 03:02:23;;;;;;;12.15;10.90;;;;;;;16.23;100.00;102277.31;5008389;28;20029;-61
2023/06/24 03:04:50;;;;;;;11.68;10.63;;;;;;;16.19;100.00;102275.47;5008720;28;20034;-60
2023/06/24 03:07:20;;;;;;;11.82;10.82;;;;;;;16.15;100.00;102278.81;5007918;28;20030;-61
2023/06/24 03:09:46;;;;;;;10.27;9.20;;;;;;;16.07;100.00;102282.06;5007337;28;20387;-60
2023/06/24 03:12:11;;;;;;;11.23;9.98;;;;;;;16.01;100.00;102278.38;5006225;28;20056;-61
2023/06/24 03:14:36;;;;;;;10.52;9.52;;;;;;;15.98;100.00;102281.72;5006960;28;20025;-61
2023/06/24 03:17:02;;;;;;;10.35;9.45;;;;;;;15.95;100.00;102285.16;5006749;28;20025;-61
2023/06/24 03:19:27;;;;;;;10.98;9.98;;;;;;;15.92;100.00;102276.31;5005979;28;20077;-61
2023/06/24 03:21:52;;;;;;;11.60;10.50;;;;;;;15.89;100.00;102278.81;5005788;28;20417;-61
2023/06/24 03:24:18;;;;;;;10.80;9.70;;;;;;;15.87;100.00;102278.75;5006974;28;20018;-60
2023/06/24 03:26:43;;;;;;;11.20;9.80;;;;;;;15.88;100.00;102279.66;5006104;28;20052;-61
2023/06/24 03:29:08;;;;;;;10.25;9.25;;;;;;;15.87;100.00;102272.63;5007378;28;20121;-61
2023/06/24 03:31:34;;;;;;;10.25;9.35;;;;;;;15.84;100.00;102269.09;5007656;28;20034;-61
2023/06/24 03:33:59;;;;;;;9.85;9.00;;;;;;;15.80;100.00;102267.22;5007527;28;20030;-61
2023/06/24 03:36:25;;;;;;;10.82;9.82;;;;;;;15.77;100.00;102277.59;5008030;28;20374;-61
2023/06/24 03:38:51;;;;;;;10.88;9.88;;;;;;;15.73;100.00;102278.31;5007555;28;20053;-61
2023/06/24 03:41:16;;;;;;;9.43;8.63;;;;;;;15.72;100.00;102279.16;5007759;28;20100;-61
2023/06/24 03:43:44;;;;;;;10.63;9.30;;;;;;;15.69;100.00;102268.56;5007819;28;20033;-61
2023/06/24 03:46:11;;;;;;;10.95;9.82;;;;;;;15.70;100.00;102275.59;5007472;28;20041;-60
2023/06/24 03:48:37;;;;;;;10.38;9.38;;;;;;;15.67;100.00;102271.13;5007944;28;20072;-61
2023/06/24 03:51:02;;;;;;;10.77;8.95;;;;;;;15.66;100.00;102271.09;5007829;28;20057;-61
2023/06/24 03:53:28;;;;;;;9.95;8.93;;;;;;;15.64;100.00;102280.59;5008068;28;20076;-61
2023/06/24 03:55:53;;;;;;;9.48;8.55;;;;;;;15.61;100.00;102278.78;5007539;28;20112;-61
2023/06/24 03:58:20;;;;;;;10.80;9.60;;;;;;;15.61;100.00;102287.50;5007819;28;20489;-60
2023/06/24 04:00:47;;;;;;;10.48;9.32;;;;;;;15.59;100.00;102291.81;5007653;28;20131;-61
2023/06/24 04:03:12;;;;;;;10.20;9.20;;;;;;;15.59;100.00;102294.41;5007532;28;20386;-61
2023/06/24 04:05:38;;;;;;;9.00;8.18;;;;;;;15.57;100.00;102285.63;5007932;28;20025;-61
2023/06/24 04:08:06;;;;;;;9.57;8.68;;;;;;;15.57;100.00;102285.63;5007299;28;20137;-60
2023/06/24 04:10:32;;;;;;;9.40;8.48;;;;;;;15.56;100.00;102293.41;5007586;28;20037;-60
2023/06/24 04:12:57;;;;;;;10.02;9.02;;;;;;;15.56;100.00;102281.22;5007523;28;20044;-60
2023/06/24 04:15:23;;;;;;;9.93;9.02;;;;;;;15.57;100.00;102288.25;5007610;28;20014;-60
2023/06/24 04:17:48;;;;;;;10.52;9.52;;;;;;;15.59;100.00;102283.97;5007527;28;20517;-61
2023/06/24 04:20:14;;;;;;;10.30;9.23;;;;;;;15.59;100.00;102289.19;5007782;28;20037;-61
2023/06/24 04:22:41;;;;;;;9.90;8.90;;;;;;;15.61;100.00;102286.63;5007747;28;20104;-60
2023/06/24 04:25:07;;;;;;;10.30;9.30;;;;;;;15.64;100.00;102288.44;5007267;28;20054;-60
2023/06/24 04:27:33;;;;;;;11.27;10.15;;;;;;;15.67;100.00;102296.41;5006389;28;20045;-61
2023/06/24 04:29:59;;;;;;;11.00;10.00;;;;;;;15.68;100.00;102296.44;5007414;28;20044;-60
2023/06/24 04:32:24;;;;;;;11.27;10.18;;;;;;;15.71;100.00;102293.03;5007528;28;20397;-60
2023/06/24 04:34:49;;;;;;;10.43;9.40;;;;;;;15.74;100.00;102285.28;5007027;28;20045;-61
2023/06/24 04:37:15;;;;;;;9.57;8.68;;;;;;;15.77;100.00;102288.03;5006638;28;20033;-61
2023/06/24 04:39:41;;;;;;;11.00;9.85;;;;;;;15.82;100.00;102291.69;5007112;28;20033;-61
2023/06/24 04:42:06;;;;;;;9.73;8.73;;;;;;;15.88;100.00;102287.50;5007735;28;20462;-61
2023/06/24 04:44:31;;;;;;;9.57;8.55;;;;;;;15.91;100.00;102288.47;5007242;28;20872;-61
2023/06/24 04:46:57;;;;;;;10.35;9.35;;;;;;;15.95;100.00;102292.09;5007477;28;20380;-61
2023/06/24 04:49:22;;;;;;;10.45;9.45;;;;;;;15.96;100.00;102293.84;5006552;28;20014;-61
2023/06/24 04:51:47;;;;;;;9.98;9.02;;;;;;;16.00;100.00;102285.31;5007067;28;20029;-61
2023/06/24 04:54:13;;;;;;;9.70;8.80;;;;;;;16.08;100.00;102289.06;5007139;28;20097;-61
2023/06/24 04:56:39;;;;;;;9.77;8.45;;;;;;;16.17;100.00;102292.81;5007839;28;20037;-61
2023/06/24 04:59:04;;;;;;;10.50;9.35;;;;;;;16.25;100.00;102287.81;5006953;28;20258;-61
2023/06/24 05:01:30;;;;;;;10.73;9.48;;;;;;;16.31;100.00;102291.53;5007010;28;20498;-61
2023/06/24 05:03:55;;;;;;;10.70;9.32;;;;;;;16.40;100.00;102290.03;5007301;28;20026;-61
2023/06/24 05:06:20;;;;;;;10.38;9.10;;;;;;;16.47;100.00;102292.00;5007577;28;20018;-61
2023/06/24 05:08:45;;;;;;;11.00;9.65;;;;;;;16.58;100.00;102291.44;5006245;28;20112;-61
2023/06/24 05:11:11;;;;;;;11.68;9.75;;;;;;;16.66;100.00;102288.19;5007325;28;20126;-61
2023/06/24 05:13:37;;;;;;;11.93;9.80;;;;;;;16.76;100.00;102294.59;5011624;28;20045;-61
2023/06/24 05:16:02;;;;;;;14.07;11.35;;;;;;;16.85;100.00;102295.72;5013793;28;20488;-61
2023/06/24 05:18:27;;;;;;;13.25;11.85;;;;;;;16.91;100.00;102293.25;5014121;28;20037;-61
2023/06/24 05:20:53;;;;;;;13.18;11.75;;;;;;;16.99;100.00;102289.13;5020734;28;20033;-62
2023/06/24 05:23:18;;;;;;;13.68;12.27;;;;;;;17.07;100.00;102291.09;5021233;28;20037;-61
2023/06/24 05:25:43;;;;;;;14.65;13.15;;;;;;;17.12;100.00;102287.78;5007826;28;20034;-62
2023/06/24 05:28:09;;;;;;;14.05;12.48;;;;;;;17.19;100.00;102286.22;5023801;28;20432;-62
2023/06/24 05:30:34;;;;;;;14.40;12.98;;;;;;;17.24;100.00;102289.84;5009671;28;20022;-62
2023/06/24 05:32:59;;;;;;;13.80;12.27;;;;;;;17.34;100.00;102287.47;5024270;28;20060;-62
2023/06/24 05:35:24;;;;;;;15.27;13.65;;;;;;;17.40;100.00;102293.78;5011254;28;20431;-62
2023/06/24 05:37:50;;;;;;;13.98;12.57;;;;;;;17.48;100.00;102300.94;4999103;28;20163;-63
2023/06/24 05:40:15;;;;;;;12.40;11.18;;;;;;;17.56;100.00;102298.53;5012785;28;20021;-62
2023/06/24 05:42:41;;;;;;;12.27;11.05;;;;;;;17.66;100.00;102297.91;5017360;28;20025;-62
2023/06/24 05:45:06;;;;;;;12.85;10.85;;;;;;;17.76;100.00;102297.31;5014278;28;20285;-62
2023/06/24 05:47:32;;;;;;;13.57;11.50;;;;;;;17.87;100.00;102294.06;5020123;28;20037;-62
2023/06/24 05:49:58;;;;;;;13.07;11.82;;;;;;;17.91;100.00;102301.16;5014450;28;20025;-62
2023/06/24 05:52:23;;;;;;;13.05;11.73;;;;;;;18.00;100.00;102306.63;5022414;28;20036;-62
2023/06/24 05:54:49;;;;;;;13.82;11.65;;;;;;;18.09;100.00;102305.97;5012017;28;20029;-62
2023/06/24 05:57:14;;;;;;;12.25;10.98;;;;;;;18.19;100.00;102306.19;5016178;28;20465;-62
2023/06/24 05:59:39;;;;;;;11.23;10.30;;;;;;;18.28;100.00;102300.28;5017793;28;20045;-63
2023/06/24 06:02:05;;;;;;;10.50;9.45;;;;;;;18.43;100.00;102300.66;5021422;28;20409;-62
2023/06/24 06:04:30;;;;;;;10.82;9.80;;;;;;;18.58;100.00;102293.97;5013714;28;20046;-62
2023/06/24 06:06:55;;;;;;;11.40;9.55;;;;;;;18.66;100.00;102300.25;5010369;28;20018;-62
2023/06/24 06:09:22;;;;;;;9.82;8.85;;;;;;;18.80;100.00;102294.38;5016826;28;20033;-62
2023/06/24 06:11:47;;;;;;;9.45;8.63;;;;;;;18.91;100.00;102302.50;5011752;28;20036;-62
2023/06/24 06:14:13;;;;;;;9.55;8.60;;;;;;;19.04;100.00;102301.91;5015712;28;20038;-62
2023/06/24 06:16:38;;;;;;;10.48;8.95;;;;;;;19.13;100.00;102298.59;5013183;28;20059;-62
2023/06/24 06:19:03;;;;;;;9.32;8.35;;;;;;;19.26;100.00;102294.47;5017420;28;20050;-62
2023/06/24 06:21:29;;;;;;;9.55;8.63;;;;;;;19.39;99.82;102303.44;5015064;28;20433;-62
2023/06/24 06:23:54;;;;;;;9.18;8.32;;;;;;;19.43;96.95;102302.66;5020522;28;20041;-62
2023/06/24 06:26:19;;;;;;;8.65;7.47;;;;;;;19.54;97.34;102299.31;5014436;28;20022;-62
2023/06/24 06:28:47;;;;;;;8.50;7.35;;;;;;;19.71;97.86;102306.63;5022329;28;20032;-62
2023/06/24 06:31:12;;;;;;;8.40;7.60;;;;;;;19.85;96.41;102305.13;5015378;28;20057;-61
2023/06/24 06:33:37;;;;;;;7.82;7.13;;;;;;;19.95;93.04;102308.75;5023322;28;20029;-62
2023/06/24 06:36:03;;;;;;;7.97;7.00;;;;;;;20.04;93.45;102311.56;5011568;28;20514;-62
2023/06/24 06:38:28;;;;;;;6.95;6.25;;;;;;;20.22;93.92;102310.09;5009944;28;20029;-62
2023/06/24 06:40:53;;;;;;;6.80;6.20;;;;;;;20.40;93.91;102313.84;5009759;28;20048;-62
2023/06/24 06:43:19;;;;;;;6.70;5.65;;;;;;;20.58;91.91;102323.75;5009186;28;20516;-62
2023/06/24 06:45:44;;;;;;;8.30;6.57;;;;;;;20.71;89.03;102323.91;5008969;28;20057;-62
2023/06/24 06:48:09;;;;;;;7.95;7.22;;;;;;;20.73;86.97;102323.09;5009544;28;20036;-62
2023/06/24 06:50:35;;;;;;;6.78;6.18;;;;;;;20.85;86.74;102324.97;5009087;28;20033;-62
2023/06/24 06:53:00;;;;;;;6.63;5.80;;;;;;;21.00;87.38;102326.06;5009365;28;20057;-62
2023/06/24 06:55:26;;;;;;;8.82;6.13;;;;;;;21.11;84.23;102323.56;5009193;28;20014;-62
2023/06/24 06:57:52;;;;;;;6.90;5.95;;;;;;;21.26;83.64;102333.41;5008793;28;20030;-62
2023/06/24 07:00:18;;;;;;;6.68;5.53;;;;;;;21.42;83.08;102329.16;5008705;28;20021;-62
2023/06/24 07:02:43;;;;;;;7.03;6.32;;;;;;;21.51;80.75;102328.38;5009232;28;20125;-62
2023/06/24 07:05:09;;;;;;;7.35;5.70;;;;;;;21.62;79.57;102332.84;5008463;28;20025;-62
2023/06/24 07:07:36;;;;;;;5.03;4.63;;;;;;;21.77;80.62;102340.91;5008792;28;20037;-62
2023/06/24 07:10:01;;;;;;;7.50;5.18;;;;;;;21.95;81.09;102334.94;5010054;28;20037;-62
2023/06/24 07:12:27;;;;;;;7.43;5.30;;;;;;;22.11;77.95;102344.72;5020930;28;20033;-62
2023/06/24 07:14:52;;;;;;;6.00;5.40;;;;;;;22.24;74.81;102343.94;5019226;28;20477;-62
2023/06/24 07:17:17;;;;;;;6.10;5.35;;;;;;;22.30;71.48;102341.34;5013825;28;20017;-62
2023/06/24 07:19:43;;;;;;;6.53;5.75;;;;;;;22.30;72.18;102346.63;5021747;28;20045;-62
2023/06/24 07:22:08;;;;;;;6.05;5.32;;;;;;;22.42;73.95;102342.28;5007400;28;20101;-62
2023/06/24 07:24:33;;;;;;;5.18;4.65;;;;;;;22.59;74.65;102341.50;5000029;28;20033;-62
2023/06/24 07:26:58;;;;;;;5.45;4.95;;;;;;;22.75;74.04;102343.38;5009922;28;20382;-62
2023/06/24 07:29:24;;;;;;;5.45;4.63;;;;;;;22.91;73.95;102339.03;5018306;28;20025;-62
2023/06/24 07:31:49;;;;;;;5.57;4.60;;;;;;;23.00;72.44;102340.81;5008614;28;20030;-61
2023/06/24 07:34:14;;;;;;;5.40;4.03;;;;;;;23.17;69.16;102344.41;5019109;28;20025;-61
2023/06/24 07:36:39;;;;;;;5.35;4.43;;;;;;;23.11;65.68;102337.31;5011113;28;20022;-62
2023/06/24 07:39:05;;;;;;;3.80;3.50;;;;;;;23.19;66.45;102337.34;5014740;28;20088;-62
2023/06/24 07:41:30;;;;;;;5.78;4.00;;;;;;;23.33;64.71;102340.03;5008282;28;20061;-63
2023/06/24 07:43:56;;;;;;;4.03;3.72;;;;;;;23.32;60.85;102348.81;5008963;28;20025;-62
2023/06/24 07:46:21;;;;;;;4.32;3.92;;;;;;;23.42;60.39;102347.13;5008864;28;20032;-62
2023/06/24 07:48:46;;;;;;;4.18;3.55;;;;;;;23.42;59.34;102341.84;5007606;28;20033;-63
2023/06/24 07:51:12;;;;;;;4.68;4.28;;;;;;;23.33;60.08;102345.31;5008253;28;20056;-62
2023/06/24 07:53:37;;;;;;;4.47;3.90;;;;;;;23.56;61.68;102341.84;5007187;28;20022;-62
2023/06/24 07:56:02;;;;;;;4.60;3.80;;;;;;;23.75;63.09;102340.09;5007963;28;20029;-62
2023/06/24 07:58:28;;;;;;;4.90;4.00;;;;;;;23.86;61.69;102340.97;5006873;28;20050;-63
2023/06/24 08:00:53;;;;;;;3.53;3.22;;;;;;;23.98;60.86;102334.78;5007360;28;20508;-62
2023/06/24 08:03:18;;;;;;;3.03;2.67;;;;;;;24.20;60.24;102334.81;5007554;28;20386;-62
2023/06/24 08:05:43;;;;;;;2.90;2.60;;;;;;;24.44;59.63;102340.03;5007537;28;20028;-62
2023/06/24 08:08:09;;;;;;;4.25;2.80;;;;;;;24.67;59.75;102337.31;5006945;28;20056;-63
2023/06/24 08:10:34;;;;;;;4.75;2.88;;;;;;;24.81;55.60;102341.66;5007890;28;20180;-62
2023/06/24 08:13:00;;;;;;;3.22;2.90;;;;;;;24.89;53.28;102339.00;5007243;28;20033;-62
2023/06/24 08:15:25;;;;;;;3.20;2.90;;;;;;;25.01;53.56;102338.06;5007591;28;20029;-63
2023/06/24 08:17:54;;;;;;;3.05;2.30;;;;;;;24.81;51.55;102341.66;5006734;28;20049;-63
2023/06/24 08:20:23;;;;;;;3.42;2.63;;;;;;;24.82;51.90;102336.34;5007122;28;20183;-62
2023/06/24 08:22:49;;;;;;;3.00;1.77;;;;;;;25.04;53.60;102332.78;5006554;28;20038;-63
2023/06/24 08:25:15;;;;;;;2.40;2.20;;;;;;;25.26;52.42;102335.28;5007062;28;20041;-62
2023/06/24 08:27:40;;;;;;;1.85;1.75;;;;;;;25.46;52.46;102328.94;5007506;28;20109;-63
2023/06/24 08:30:06;;;;;;;1.98;1.85;;;;;;;25.48;50.09;102327.16;5007022;28;20079;-63
2023/06/24 08:32:31;;;;;;;2.08;1.83;;;;;;;25.59;48.64;102325.31;5007334;28;20030;-63
2023/06/24 08:34:57;;;;;;;1.70;1.60;;;;;;;25.42;45.33;102328.09;5006626;28;20026;-62
2023/06/24 08:37:22;;;;;;;3.55;1.85;;;;;;;25.32;47.14;102327.28;5007054;28;20053;-62
2023/06/24 08:39:47;;;;;;;1.73;1.63;;;;;;;25.45;48.03;102321.91;5006709;28;20156;-63
2023/06/24 08:42:12;;;;;;;2.22;1.60;;;;;;;25.64;48.90;102322.63;5006996;28;20030;-62
2023/06/24 08:44:39;;;;;;;471.92;108.93;;;;;;;25.82;48.40;102321.63;5006865;28;20430;-63
2023/06/24 08:47:04;;;;;;;17.35;4.95;;;;;;;25.96;48.16;102320.63;5006811;28;20029;-63
2023/06/24 08:49:30;;;;;;;2.50;1.70;;;;;;;25.90;46.79;102311.78;5006458;28;20037;-62
2023/06/24 08:52:00;;;;;;;2.33;1.60;;;;;;;26.06;48.62;102309.00;4989317;28;20084;-61
2023/06/24 08:54:26;;;;;;;4.85;1.63;;;;;;;26.21;48.35;102312.41;5008838;28;20486;-62
2023/06/24 08:56:52;;;;;;;1.50;1.40;;;;;;;26.30;46.87;102316.72;5011373;28;20022;-62
2023/06/24 08:59:20;;;;;;;3.65;1.73;;;;;;;26.21;44.02;102313.25;5010736;28;20061;-62
2023/06/24 09:01:47;;;;;;;1.38;1.27;;;;;;;26.31;45.68;102318.47;5010961;28;20138;-62
2023/06/24 09:04:12;;;;;;;1.52;1.42;;;;;;;26.28;46.77;102314.09;5010544;28;20425;-63
2023/06/24 09:06:37;;;;;;;2.65;1.52;;;;;;;26.24;43.02;102315.91;5010191;28;20026;-62
2023/06/24 09:09:02;;;;;;;1.83;1.30;;;;;;;26.22;44.62;102314.16;5010640;28;20018;-62
2023/06/24 09:11:28;;;;;;;3.28;1.35;;;;;;;26.43;47.33;102312.16;5010532;28;20508;-63
2023/06/24 09:13:56;;;;;;;1.45;1.00;;;;;;;26.50;45.56;102313.84;5010476;28;20112;-63
2023/06/24 09:16:21;;;;;;;3.17;1.40;;;;;;;26.72;48.37;102310.94;5010126;28;20017;-63
2023/06/24 09:18:51;;;;;;;2.03;1.40;;;;;;;26.97;49.23;102303.50;5010276;28;20040;-62
2023/06/24 09:21:26;;;;;;;1.93;1.60;;;;;;;26.92;42.49;102304.47;5010522;28;20045;-62
2023/06/24 09:23:53;;;;;;;3.42;1.55;;;;;;;27.04;46.36;102304.31;5009765;28;20018;-63
2023/06/24 09:26:19;;;;;;;1.95;1.60;;;;;;;27.20;46.69;102302.28;5010548;28;20482;-62
2023/06/24 09:28:51;;;;;;;2.92;2.00;;;;;;;27.31;46.50;102301.25;5010029;28;20037;-63
2023/06/24 09:31:17;;;;;;;1.92;1.38;;;;;;;27.45;47.85;102287.75;5010511;28;20036;-63
2023/06/24 09:33:43;;;;;;;2.95;1.85;;;;;;;27.36;44.78;102298.53;5010494;28;20029;-64
2023/06/24 09:36:12;;;;;;;2.97;1.70;;;;;;;27.40;42.52;102290.47;5009837;28;20037;-63
2023/06/24 09:38:41;;;;;;;2.05;1.88;;;;;;;27.34;42.69;102290.56;4997719;28;20029;-63
2023/06/24 09:41:08;;;;;;;2.38;1.67;;;;;;;27.19;42.39;102283.72;5009699;28;20044;-63
2023/06/24 09:43:39;;;;;;;1.40;1.30;;;;;;;27.17;40.87;102277.53;5010353;28;20030;-63
2023/06/24 09:46:04;;;;;;;1.50;1.40;;;;;;;26.86;42.31;102279.72;5009937;28;20026;-63
2023/06/24 09:48:30;;;;;;;2.08;1.70;;;;;;;26.84;42.89;102278.00;5009990;28;20358;-63
2023/06/24 09:50:59;;;;;;;2.00;1.70;;;;;;;26.87;41.22;102277.94;5009376;28;20030;-63
2023/06/24 09:53:25;;;;;;;2.17;1.60;;;;;;;26.83;39.42;102271.78;5009765;28;20018;-63
2023/06/24 09:55:52;;;;;;;1.75;1.58;;;;;;;26.85;38.78;102277.97;5010018;28;20033;-63
2023/06/24 09:58:18;;;;;;;1.80;1.30;;;;;;;26.73;39.08;102278.16;5009502;28;20041;-63
2023/06/24 10:00:44;;;;;;;1.55;1.45;;;;;;;26.68;36.67;102280.00;5009124;28;20516;-63
2023/06/24 10:03:11;;;;;;;1.65;1.30;;;;;;;26.95;38.69;102277.81;5009479;28;20030;-63
2023/06/24 10:05:36;;;;;;;2.50;1.20;;;;;;;27.20;38.26;102273.03;5007454;28;20167;-64
2023/06/24 10:08:05;;;;;;;1.17;1.08;;;;;;;27.35;37.11;102279.03;5005822;28;20382;-63
2023/06/24 10:10:30;;;;;;;1.38;1.27;;;;;;;27.53;39.57;102285.81;5004821;28;20030;-63
2023/06/24 10:12:56;;;;;;;1.45;1.35;;;;;;;27.69;39.99;102282.88;5010003;28;20377;-63
2023/06/24 10:15:22;;;;;;;1.38;1.27;;;;;;;27.78;41.64;102274.75;5008770;28;20034;-61
2023/06/24 10:17:48;;;;;;;2.10;1.90;;;;;;;27.80;40.90;102278.28;5007958;28;20038;-62
2023/06/24 10:20:23;;;;;;;1.50;1.40;;;;;;;27.90;40.79;102275.47;5008417;28;20377;-61
2023/06/24 10:22:50;;;;;;;2.97;1.48;;;;;;;28.08;41.43;102265.34;5010272;28;20347;-62
2023/06/24 10:25:16;;;;;;;2.83;2.05;;;;;;;27.93;40.35;102268.28;5010022;28;20057;-61
2023/06/24 10:27:42;;;;;;;1.48;1.38;;;;;;;27.71;39.66;102269.56;5010568;28;20079;-61
2023/06/24 10:30:08;;;;;;;4.25;1.60;;;;;;;27.79;40.92;102268.53;5010141;28;20038;-61
2023/06/24 10:32:42;;;;;;;1.95;1.65;;;;;;;27.91;40.83;102269.22;5009855;28;20033;-64
2023/06/24 10:35:25;;;;;;;2.30;1.45;;;;;;;28.10;43.19;102259.06;5009748;28;20080;-62
2023/06/24 10:37:55;;;;;;;2.35;1.90;;;;;;;28.26;45.19;102256.97;5000055;28;20125;-64
2023/06/24 10:40:42;;;;;;;2.00;1.90;;;;;;;28.34;39.96;102261.25;4995906;28;20075;-61
2023/06/24 10:43:23;;;;;;;12.80;11.90;;;;;;;28.38;40.30;102268.31;5010481;28;20374;-62
2023/06/24 10:45:52;;;;;;;;;;;;;;;28.38;40.57;102257.66;5008201;28;20034;-63
2023/06/24 10:48:19;;;;;;;3.22;2.20;;;;;;;28.36;38.18;102259.47;5009636;28;20415;-63
2023/06/24 10:50:45;;;;;;;2.78;1.70;;;;;;;28.38;40.55;102258.53;5010535;28;20030;-62
2023/06/24 10:53:12;;;;;;;3.47;2.08;;;;;;;28.43;38.47;102250.44;5003725;28;20029;-62
2023/06/24 10:55:39;;;;;;;3.13;2.30;;;;;;;28.32;39.67;102247.97;5008451;28;20042;-64
2023/06/24 10:58:12;;;;;;;2.20;2.00;;;;;;;28.53;41.90;102251.13;5007065;28;20057;-64
2023/06/24 11:00:38;;;;;;;2.58;1.80;;;;;;;28.64;40.02;102250.88;5003608;28;20030;-64
2023/06/24 11:03:14;;;;;;;2.65;2.10;;;;;;;28.89;43.13;102245.84;5002024;28;20025;-63
2023/06/24 11:05:45;;;;;;;4.45;1.90;;;;;;;29.06;40.20;102244.59;5002113;28;20101;-63
2023/06/24 11:08:10;;;;;;;3.03;2.08;;;;;;;29.28;41.33;102248.53;5009523;28;20033;-64
2023/06/24 11:10:47;;;;;;;2.45;2.25;;;;;;;29.40;39.20;102245.53;5009700;28;20548;-64
2023/06/24 11:13:13;;;;;;;2.72;2.45;;;;;;;29.53;41.07;102237.22;5007993;28;20389;-62